Time;durP1;ratioP1;P1;durP2;ratioP2;P2;SDS_P1;SDS_P2;PMS_P1;PMS_P2;Temp;Humidity;BMP_temperature;BMP_pressure;BME280_temperature;BME280_humidity;BME280_pressure;Samples;Min_cycle;Max_cycle;Signal;HPM_P1;HPM_P2
2022/10/30 00:00:41;;;;;;;13.77;4.88;;;;;;;18.67;51.99;102016.56;4993945;28;20029;-41
2022/10/30 00:03:15;;;;;;;18.50;6.40;;;;;;;18.42;51.97;102024.78;4978983;28;20244;-45
2022/10/30 00:05:42;;;;;;;11.10;5.63;;;;;;;18.23;53.64;102017.78;4979423;28;20029;-42
2022/10/30 00:08:13;;;;;;;14.27;5.60;;;;;;;18.59;53.02;102022.25;4994957;28;20422;-42
2022/10/30 00:10:40;;;;;;;16.00;6.15;;;;;;;18.68;53.14;102026.34;4993754;28;20182;-42
2022/10/30 00:13:07;;;;;;;14.40;5.35;;;;;;;18.76;54.15;102018.94;4982937;28;20058;-45
2022/10/30 00:15:33;;;;;;;14.57;5.50;;;;;;;18.71;55.15;102015.03;4981959;28;20034;-44
2022/10/30 00:18:00;;;;;;;16.20;5.60;;;;;;;18.40;57.14;102018.78;4994645;28;20538;-45
2022/10/30 00:20:26;;;;;;;18.45;6.00;;;;;;;18.45;57.35;102020.81;4994124;28;20038;-43
2022/10/30 00:22:52;;;;;;;13.40;4.95;;;;;;;18.38;57.90;102012.78;4988604;28;20046;-45
2022/10/30 00:25:18;;;;;;;15.45;4.63;;;;;;;18.48;57.88;102012.19;4992016;28;20053;-44
2022/10/30 00:27:45;;;;;;;8.52;4.65;;;;;;;18.43;57.91;102003.94;4994466;28;20037;-43
2022/10/30 00:30:11;;;;;;;18.58;5.07;;;;;;;17.97;58.92;102008.06;4993029;28;20041;-43
2022/10/30 00:32:37;;;;;;;12.07;5.05;;;;;;;18.13;58.69;102017.47;4994991;28;20035;-44
2022/10/30 00:35:04;;;;;;;12.60;5.35;;;;;;;17.82;59.00;102010.31;4989954;28;20031;-44
2022/10/30 00:37:30;;;;;;;10.63;4.43;;;;;;;17.88;58.94;102017.59;4988424;28;20039;-45
2022/10/30 00:39:56;;;;;;;17.00;5.50;;;;;;;17.90;58.84;102016.28;4993872;28;20026;-44
2022/10/30 00:42:29;;;;;;;12.20;4.82;;;;;;;17.82;59.74;102016.59;4988781;28;20026;-45
2022/10/30 00:44:55;;;;;;;15.13;5.20;;;;;;;17.93;60.11;102015.00;4974973;28;20157;-42
2022/10/30 00:47:35;;;;;;;23.33;6.43;;;;;;;18.08;60.05;102012.72;4972570;28;20034;-41
2022/10/30 00:50:37;;;;;;;12.30;5.50;;;;;;;17.98;60.39;102014.31;4977779;28;20546;-41
2022/10/30 00:53:10;;;;;;;10.70;5.25;;;;;;;17.87;60.39;102002.34;4921151;29;20047;-41
2022/10/30 00:55:47;;;;;;;15.25;4.88;;;;;;;17.56;61.88;102009.53;4964968;28;20046;-41
2022/10/30 00:58:16;;;;;;;12.15;5.13;;;;;;;17.64;62.00;102011.13;4981186;28;20098;-41
2022/10/30 01:00:52;;;;;;;17.83;5.40;;;;;;;17.43;62.95;102012.38;4980912;28;20038;-42
2022/10/30 01:03:21;;;;;;;11.98;5.40;;;;;;;17.40;63.24;102002.84;4980812;28;20105;-42
2022/10/30 01:05:51;;;;;;;15.95;5.43;;;;;;;17.23;64.18;102000.91;4975948;28;20490;-41
2022/10/30 01:08:18;;;;;;;14.45;5.43;;;;;;;17.45;64.11;102010.28;4993541;28;20070;-41
2022/10/30 01:10:47;;;;;;;16.35;5.10;;;;;;;17.60;64.05;102001.78;4991266;28;20498;-41
2022/10/30 01:13:14;;;;;;;12.88;5.03;;;;;;;17.48;64.79;101999.00;4992335;28;20026;-41
2022/10/30 01:15:57;;;;;;;10.10;4.47;;;;;;;17.30;65.39;101994.38;4987690;28;20383;-42
2022/10/30 01:18:42;;;;;;;13.75;4.72;;;;;;;17.31;65.68;101990.63;4985542;28;20073;-42
2022/10/30 01:21:08;;;;;;;10.85;4.80;;;;;;;17.20;66.07;101988.66;4977515;28;20022;-41
2022/10/30 01:23:34;;;;;;;10.50;4.53;;;;;;;17.31;66.25;101992.50;4988602;28;20093;-41
2022/10/30 01:26:23;;;;;;;11.32;4.70;;;;;;;17.09;66.38;101995.59;4989138;28;20038;-42
2022/10/30 01:29:26;;;;;;;13.10;4.57;;;;;;;17.08;66.35;101999.38;4979547;28;20077;-42
2022/10/30 01:32:16;;;;;;;8.20;4.15;;;;;;;17.04;66.30;101989.19;4990346;28;20154;-41
2022/10/30 01:34:54;;;;;;;15.90;5.00;;;;;;;17.13;66.37;101993.28;4984191;28;20034;-41
2022/10/30 01:37:31;;;;;;;11.10;4.35;;;;;;;17.15;66.22;102000.13;4990809;28;20030;-41
2022/10/30 01:40:12;;;;;;;9.48;4.45;;;;;;;16.71;68.20;102001.13;4991956;28;20046;-41
2022/10/30 01:42:46;;;;;;;12.30;4.38;;;;;;;16.75;67.76;102001.50;4989356;28;20026;-42
2022/10/30 01:45:25;;;;;;;9.02;4.65;;;;;;;16.73;68.04;102007.13;4985930;28;20325;-42
2022/10/30 01:48:00;;;;;;;14.02;5.10;;;;;;;16.64;68.00;102011.94;4983831;28;20034;-43
2022/10/30 01:50:32;;;;;;;10.95;5.00;;;;;;;16.57;67.86;102018.44;4992682;28;20026;-41
2022/10/30 01:53:37;;;;;;;9.52;4.82;;;;;;;16.57;68.43;102016.56;4990903;28;20042;-41
2022/10/30 01:56:21;;;;;;;12.50;5.30;;;;;;;16.55;68.33;102012.44;4992448;28;20033;-41
2022/10/30 01:59:00;;;;;;;16.90;5.38;;;;;;;16.49;68.61;102015.97;4991554;28;20034;-41
2022/10/30 02:01:28;;;;;;;13.32;5.22;;;;;;;16.54;68.80;102018.84;4992517;28;20037;-42
2022/10/30 02:03:54;;;;;;;15.43;5.40;;;;;;;16.53;68.64;102020.72;4991202;28;20053;-40
2022/10/30 02:06:21;;;;;;;9.70;4.40;;;;;;;16.60;68.54;102021.53;4992160;28;20422;-39
2022/10/30 02:08:47;;;;;;;11.98;5.20;;;;;;;16.34;69.29;102029.78;4990659;28;20030;-38
2022/10/30 02:11:15;;;;;;;9.65;4.68;;;;;;;16.45;69.32;102030.97;4992452;28;20030;-39
2022/10/30 02:13:41;;;;;;;12.32;5.55;;;;;;;16.35;69.30;102028.72;4990630;28;20390;-38
2022/10/30 02:16:09;;;;;;;16.30;5.70;;;;;;;16.39;69.41;102032.66;4992081;28;20126;-38
2022/10/30 02:18:35;;;;;;;14.30;5.25;;;;;;;16.34;69.04;102030.59;4990270;28;20069;-38
2022/10/30 02:21:01;;;;;;;10.07;5.15;;;;;;;16.44;69.15;102027.44;4992153;28;20534;-38
2022/10/30 02:23:27;;;;;;;9.10;4.63;;;;;;;16.40;68.87;102034.31;4990090;28;20031;-38
2022/10/30 02:25:53;;;;;;;10.00;4.68;;;;;;;16.30;69.27;102031.25;4990950;28;20030;-38
2022/10/30 02:28:20;;;;;;;14.43;5.03;;;;;;;16.24;69.59;102032.94;4989874;28;20042;-39
2022/10/30 02:30:46;;;;;;;13.43;5.40;;;;;;;16.20;69.98;102039.81;4992251;28;20026;-39
2022/10/30 02:33:12;;;;;;;9.63;4.63;;;;;;;16.04;70.63;102037.56;4991155;28;20037;-39
2022/10/30 02:35:38;;;;;;;17.02;4.90;;;;;;;16.01;70.54;102028.03;4991848;28;20037;-40
2022/10/30 02:38:04;;;;;;;11.75;4.05;;;;;;;16.00;70.76;102026.38;4990076;28;20475;-41
2022/10/30 02:40:31;;;;;;;13.13;5.15;;;;;;;15.95;71.26;102031.59;4992211;28;20385;-42
2022/10/30 02:42:57;;;;;;;12.93;5.20;;;;;;;15.88;71.12;102028.09;4990484;28;20026;-41
2022/10/30 02:45:23;;;;;;;12.07;5.50;;;;;;;15.96;71.25;102029.72;4991921;28;20034;-41
2022/10/30 02:47:49;;;;;;;12.20;5.10;;;;;;;16.05;71.02;102032.00;4991240;28;20374;-41
2022/10/30 02:50:16;;;;;;;12.55;4.82;;;;;;;16.06;71.22;102038.22;4992065;28;20022;-41
2022/10/30 02:52:42;;;;;;;13.82;5.35;;;;;;;15.96;71.93;102029.72;4991473;28;20033;-41
2022/10/30 02:55:08;;;;;;;11.35;4.53;;;;;;;15.95;71.74;102036.16;4991767;28;20030;-41
2022/10/30 02:57:35;;;;;;;11.90;5.15;;;;;;;16.18;71.90;102041.06;4990005;28;20042;-41
2022/10/30 03:00:01;;;;;;;10.82;4.68;;;;;;;15.91;72.32;102035.75;4991824;28;20031;-41
2022/10/30 03:02:27;;;;;;;14.23;4.68;;;;;;;15.88;72.32;102036.19;4989891;28;20037;-39
2022/10/30 03:04:53;;;;;;;9.48;4.68;;;;;;;15.81;72.43;102036.19;4991374;28;20033;-38
2022/10/30 03:07:19;;;;;;;11.15;4.28;;;;;;;15.75;71.93;102028.94;4989452;28;20030;-38
2022/10/30 03:09:47;;;;;;;8.98;5.18;;;;;;;15.62;73.18;102034.34;4991787;28;20141;-38
2022/10/30 03:12:13;;;;;;;12.88;5.03;;;;;;;15.70;73.01;102022.50;4990195;28;20027;-38
2022/10/30 03:14:39;;;;;;;10.02;4.55;;;;;;;15.58;72.85;102019.59;4989946;28;20447;-38
2022/10/30 03:17:05;;;;;;;8.05;4.32;;;;;;;15.51;72.85;102019.63;4991114;28;20084;-39
2022/10/30 03:19:32;;;;;;;13.27;4.70;;;;;;;15.56;72.42;102009.03;4995088;28;20076;-39
2022/10/30 03:21:58;;;;;;;10.38;4.25;;;;;;;15.51;72.57;102013.41;4993330;28;20030;-38
2022/10/30 03:24:24;;;;;;;10.57;5.40;;;;;;;15.59;72.37;102022.09;4994990;28;20065;-38
2022/10/30 03:26:50;;;;;;;11.40;4.80;;;;;;;15.44;73.85;102023.38;4989851;28;20031;-39
2022/10/30 03:29:16;;;;;;;11.77;4.85;;;;;;;15.40;73.79;102020.25;4976188;28;20490;-38
2022/10/30 03:31:42;;;;;;;13.85;5.50;;;;;;;15.39;74.86;102024.00;4982419;28;20100;-38
2022/10/30 03:34:09;;;;;;;16.58;5.38;;;;;;;15.43;74.78;102022.53;4995297;28;20030;-38
2022/10/30 03:36:35;;;;;;;11.30;5.10;;;;;;;15.45;74.63;102020.47;4993980;28;20030;-38
2022/10/30 03:39:01;;;;;;;11.32;5.90;;;;;;;15.34;74.68;102018.41;4993606;28;20038;-40
2022/10/30 03:41:27;;;;;;;19.17;7.70;;;;;;;15.23;74.26;102013.63;4993928;28;20030;-39
2022/10/30 03:43:53;;;;;;;12.05;6.50;;;;;;;15.09;74.56;102001.19;4994821;28;20030;-39
2022/10/30 03:46:19;;;;;;;11.27;6.10;;;;;;;15.09;73.91;102010.09;4993407;28;20165;-39
2022/10/30 03:48:49;;;;;;;8.73;5.82;;;;;;;15.13;73.34;102005.97;4994933;28;20379;-40
2022/10/30 03:51:16;;;;;;;11.75;6.50;;;;;;;15.07;73.10;102011.34;4993889;28;20391;-39
2022/10/30 03:53:42;;;;;;;12.45;6.50;;;;;;;14.98;72.82;102008.84;4982229;28;20034;-39
2022/10/30 03:56:09;;;;;;;10.73;6.18;;;;;;;15.03;72.12;102009.06;4986774;28;20030;-39
2022/10/30 03:58:35;;;;;;;15.75;7.13;;;;;;;14.99;71.54;102010.53;4992710;28;20117;-39
2022/10/30 04:01:03;;;;;;;12.32;6.15;;;;;;;15.08;71.02;102015.69;4994824;28;20030;-39
2022/10/30 04:03:29;;;;;;;12.07;6.18;;;;;;;14.99;70.59;102010.53;4993835;28;20038;-40
2022/10/30 04:05:56;;;;;;;11.88;6.32;;;;;;;14.83;71.19;102010.09;4992655;28;20081;-39
2022/10/30 04:08:22;;;;;;;17.95;6.78;;;;;;;14.83;71.06;102015.50;4995219;28;20113;-39
2022/10/30 04:10:48;;;;;;;11.93;6.50;;;;;;;14.57;72.10;102016.25;4992731;28;20064;-39
2022/10/30 04:13:16;;;;;;;10.40;5.55;;;;;;;14.59;71.83;102017.72;4994673;28;20037;-38
2022/10/30 04:15:43;;;;;;;10.73;6.43;;;;;;;14.58;72.01;102017.91;4993097;28;20025;-39
2022/10/30 04:18:11;;;;;;;11.95;6.72;;;;;;;14.94;71.00;102017.56;4992936;28;20050;-38
2022/10/30 04:20:38;;;;;;;13.40;5.68;;;;;;;14.70;72.14;102021.66;4994721;28;20458;-38
2022/10/30 04:23:06;;;;;;;12.25;6.13;;;;;;;14.34;74.33;102027.34;4993362;28;20064;-38
2022/10/30 04:25:35;;;;;;;11.18;5.78;;;;;;;14.39;74.13;102031.09;4994034;28;20482;-38
2022/10/30 04:28:02;;;;;;;13.60;5.63;;;;;;;14.45;73.72;102030.28;4992816;28;20488;-38
2022/10/30 04:30:32;;;;;;;13.73;5.13;;;;;;;14.43;73.45;102021.56;4994396;28;20483;-38
2022/10/30 04:32:59;;;;;;;7.45;4.57;;;;;;;14.41;73.32;102034.41;4992455;28;20121;-38
2022/10/30 04:35:28;;;;;;;14.15;5.38;;;;;;;14.29;73.76;102033.34;4993800;28;20022;-38
2022/10/30 04:37:56;;;;;;;9.85;5.07;;;;;;;14.25;73.96;102032.06;4989661;28;20118;-38
2022/10/30 04:40:24;;;;;;;8.25;4.80;;;;;;;14.18;74.00;102032.06;4994127;28;20479;-39
2022/10/30 04:42:50;;;;;;;10.02;5.28;;;;;;;14.27;73.66;102032.72;4991992;28;20113;-40
2022/10/30 04:45:16;;;;;;;7.55;4.65;;;;;;;14.22;73.61;102030.63;4993834;28;20022;-40
2022/10/30 04:47:43;;;;;;;6.63;4.45;;;;;;;14.19;73.52;102025.63;4990756;28;20069;-39
2022/10/30 04:50:10;;;;;;;10.32;4.90;;;;;;;14.20;73.52;102026.47;4993888;28;20533;-40
2022/10/30 04:52:37;;;;;;;8.05;4.45;;;;;;;14.20;73.22;102029.97;4990884;28;20085;-40
2022/10/30 04:55:04;;;;;;;7.82;4.65;;;;;;;14.15;73.00;102018.97;4993504;28;20117;-41
2022/10/30 04:57:33;;;;;;;6.78;4.65;;;;;;;14.24;72.60;102033.94;4991624;28;20034;-44
2022/10/30 04:59:59;;;;;;;9.65;4.72;;;;;;;14.17;72.56;102037.66;4993681;28;20026;-41
2022/10/30 05:02:25;;;;;;;12.30;5.10;;;;;;;14.06;73.04;102046.28;4990294;28;20038;-40
2022/10/30 05:04:52;;;;;;;11.95;5.30;;;;;;;14.03;73.01;102049.38;4981822;28;20030;-42
2022/10/30 05:07:18;;;;;;;7.50;4.55;;;;;;;14.04;72.87;102046.47;4990286;28;20031;-43
2022/10/30 05:09:44;;;;;;;8.07;4.72;;;;;;;14.04;72.72;102045.66;4975846;28;20042;-42
2022/10/30 05:12:10;;;;;;;11.00;5.35;;;;;;;13.99;72.91;102043.53;4987374;28;20391;-39
2022/10/30 05:14:36;;;;;;;10.48;5.57;;;;;;;13.92;73.39;102046.22;4992012;28;20027;-43
2022/10/30 05:17:03;;;;;;;11.02;5.13;;;;;;;13.90;73.68;102053.66;4986576;28;20034;-44
2022/10/30 05:19:29;;;;;;;12.40;6.10;;;;;;;13.95;73.62;102050.38;4987810;28;20050;-41
2022/10/30 05:21:55;;;;;;;8.70;4.70;;;;;;;13.90;73.49;102050.13;4982640;28;20030;-42
2022/10/30 05:24:21;;;;;;;9.85;4.35;;;;;;;13.86;73.48;102051.56;4985468;23;20425;-41
2022/10/30 05:26:48;;;;;;;11.05;4.82;;;;;;;13.82;73.34;102051.13;4991550;28;20034;-42
2022/10/30 05:29:14;;;;;;;9.32;5.75;;;;;;;13.77;73.53;102055.44;4992723;28;20034;-43
2022/10/30 05:31:40;;;;;;;9.98;6.53;;;;;;;13.74;73.90;102054.81;4987336;28;20033;-42
2022/10/30 05:34:06;;;;;;;12.25;6.40;;;;;;;13.76;74.04;102046.53;4989368;28;20030;-42
2022/10/30 05:36:32;;;;;;;9.98;5.82;;;;;;;13.72;73.77;102053.34;4984535;28;20037;-40
2022/10/30 05:38:58;;;;;;;10.80;5.95;;;;;;;13.67;74.07;102053.09;4986073;28;20085;-39
2022/10/30 05:41:25;;;;;;;10.68;5.80;;;;;;;13.61;74.11;102054.72;4992785;28;20336;-39
2022/10/30 05:43:51;;;;;;;9.88;5.75;;;;;;;13.60;74.08;102057.59;4992959;28;20396;-39
2022/10/30 05:46:17;;;;;;;11.00;6.40;;;;;;;13.57;74.19;102058.81;4993290;28;20033;-39
2022/10/30 05:48:43;;;;;;;10.20;5.97;;;;;;;13.55;74.49;102055.50;4993639;28;20100;-39
2022/10/30 05:51:09;;;;;;;11.13;6.88;;;;;;;13.75;74.28;102061.00;4993037;28;20029;-38
2022/10/30 05:53:35;;;;;;;18.23;7.28;;;;;;;13.60;74.42;102057.59;4992707;28;20027;-40
2022/10/30 05:56:02;;;;;;;11.60;6.63;;;;;;;13.58;74.34;102059.66;4992754;28;20030;-41
2022/10/30 05:58:28;;;;;;;10.57;6.47;;;;;;;13.51;74.30;102064.16;4992694;28;20026;-41
2022/10/30 06:00:54;;;;;;;12.45;6.20;;;;;;;13.43;74.16;102063.25;4973584;28;20027;-39
2022/10/30 06:03:20;;;;;;;14.50;7.13;;;;;;;13.38;74.30;102064.88;4973305;28;20484;-39
2022/10/30 06:05:47;;;;;;;12.13;6.07;;;;;;;13.37;74.32;102061.34;4972890;28;20029;-39
2022/10/30 06:08:16;;;;;;;10.63;5.47;;;;;;;13.32;74.53;102054.91;4973384;28;20022;-39
2022/10/30 06:10:42;;;;;;;11.10;6.20;;;;;;;13.29;74.32;102052.63;4973987;28;20035;-40
2022/10/30 06:13:10;;;;;;;9.23;5.65;;;;;;;13.34;74.04;102060.94;4972534;28;20396;-40
2022/10/30 06:15:36;;;;;;;11.13;5.90;;;;;;;13.25;74.15;102056.72;4973820;28;20027;-40
2022/10/30 06:18:02;;;;;;;8.85;5.43;;;;;;;13.19;74.24;102050.22;4992177;28;20101;-40
2022/10/30 06:20:30;;;;;;;11.35;6.30;;;;;;;13.19;73.98;102045.66;4993705;28;20148;-40
2022/10/30 06:23:01;;;;;;;15.18;6.13;;;;;;;13.22;74.13;102049.88;5010210;28;20076;-41
2022/10/30 06:25:30;;;;;;;11.60;5.70;;;;;;;13.12;74.26;102041.28;5010691;28;20057;-43
2022/10/30 06:27:57;;;;;;;8.75;5.85;;;;;;;13.08;74.52;102035.44;4987976;28;20101;-42
2022/10/30 06:30:24;;;;;;;13.52;6.15;;;;;;;13.06;74.25;102033.97;4990791;28;20390;-41
2022/10/30 06:32:56;;;;;;;8.35;5.28;;;;;;;13.02;74.33;102041.59;4988150;28;21133;-40
2022/10/30 06:35:22;;;;;;;12.07;5.68;;;;;;;12.97;74.57;102035.97;4992424;28;20077;-39
2022/10/30 06:37:48;;;;;;;19.88;6.18;;;;;;;13.00;74.31;102029.38;4992266;28;20045;-39
2022/10/30 06:40:15;;;;;;;10.07;6.22;;;;;;;12.94;74.22;102029.13;4992484;28;20381;-39
2022/10/30 06:42:46;;;;;;;11.60;5.53;;;;;;;12.99;74.38;102031.22;4992468;28;20030;-39
2022/10/30 06:45:13;;;;;;;11.43;6.03;;;;;;;12.99;74.44;102033.91;4992510;28;20066;-39
2022/10/30 06:47:40;;;;;;;11.32;6.03;;;;;;;12.95;74.59;102030.78;4992404;28;20109;-39
2022/10/30 06:50:09;;;;;;;8.93;5.63;;;;;;;12.88;74.77;102032.59;4992303;28;20053;-40
2022/10/30 06:52:36;;;;;;;11.57;5.78;;;;;;;12.96;74.68;102023.53;4996230;28;20029;-40
2022/10/30 06:55:03;;;;;;;16.75;7.10;;;;;;;12.84;75.27;102023.22;4996050;28;20054;-39
2022/10/30 06:57:29;;;;;;;12.73;6.88;;;;;;;12.80;75.79;102030.00;4996091;28;20044;-40
2022/10/30 06:59:55;;;;;;;14.68;7.40;;;;;;;12.78;76.53;102026.69;4996283;28;20069;-40
2022/10/30 07:02:22;;;;;;;17.08;7.78;;;;;;;12.94;77.03;102014.84;4996057;28;20026;-40
2022/10/30 07:04:48;;;;;;;24.88;8.73;;;;;;;13.07;77.32;102017.66;4987666;28;20054;-40
2022/10/30 07:07:14;;;;;;;14.77;8.35;;;;;;;13.05;78.10;102013.50;4982702;28;20080;-41
2022/10/30 07:09:41;;;;;;;16.83;8.07;;;;;;;13.00;78.81;102014.09;4996027;28;20057;-39
2022/10/30 07:12:08;;;;;;;21.77;8.43;;;;;;;13.04;78.77;102011.81;4976046;28;20483;-40
2022/10/30 07:14:34;;;;;;;20.30;7.75;;;;;;;12.91;79.03;102008.00;4982202;28;20038;-41
2022/10/30 07:17:01;;;;;;;18.48;8.07;;;;;;;12.96;78.56;102007.44;4995852;28;20026;-45
2022/10/30 07:19:27;;;;;;;20.70;7.90;;;;;;;12.85;79.31;102000.72;4991432;28;20283;-42
2022/10/30 07:21:54;;;;;;;24.23;7.90;;;;;;;13.05;79.64;102003.59;4995810;28;20031;-40
2022/10/30 07:24:20;;;;;;;15.52;7.25;;;;;;;12.93;79.95;101997.88;4994932;28;20088;-39
2022/10/30 07:26:46;;;;;;;15.85;6.70;;;;;;;12.64;80.76;101998.03;5007085;28;20080;-39
2022/10/30 07:29:12;;;;;;;9.88;5.40;;;;;;;12.63;80.25;101991.81;5015226;28;20026;-39
2022/10/30 07:31:38;;;;;;;12.52;5.70;;;;;;;12.69;79.28;101991.06;5015308;28;20033;-39
2022/10/30 07:34:05;;;;;;;11.43;5.82;;;;;;;12.66;79.06;101987.94;5014744;28;20025;-43
2022/10/30 07:36:31;;;;;;;10.13;5.32;;;;;;;12.64;78.69;101981.91;5015084;28;20062;-42
2022/10/30 07:38:57;;;;;;;13.48;5.72;;;;;;;12.67;78.62;101987.72;5015266;28;20029;-43
2022/10/30 07:41:23;;;;;;;8.98;5.30;;;;;;;12.54;78.64;101992.94;5007114;28;20419;-40
2022/10/30 07:43:49;;;;;;;6.97;4.97;;;;;;;12.53;78.75;101988.63;4995362;28;20058;-41
2022/10/30 07:46:15;;;;;;;8.55;4.85;;;;;;;12.64;78.20;101989.97;4995095;28;20034;-41
2022/10/30 07:48:42;;;;;;;10.20;4.78;;;;;;;12.52;77.93;101994.19;4995209;28;20427;-40
2022/10/30 07:51:08;;;;;;;12.40;5.65;;;;;;;12.56;77.34;101990.09;4992541;28;20088;-40
2022/10/30 07:53:34;;;;;;;9.98;5.05;;;;;;;12.44;77.50;101992.47;4979209;28;20026;-40
2022/10/30 07:56:00;;;;;;;9.95;5.45;;;;;;;12.48;77.34;101992.88;4975037;28;20039;-40
2022/10/30 07:58:26;;;;;;;10.80;4.60;;;;;;;12.50;77.42;101985.50;4983291;28;20041;-40
2022/10/30 08:00:53;;;;;;;6.53;4.50;;;;;;;12.43;77.59;101986.22;4994568;28;20112;-40
2022/10/30 08:03:19;;;;;;;10.30;5.80;;;;;;;12.42;77.67;101983.75;4993632;28;20053;-40
2022/10/30 08:05:45;;;;;;;8.63;5.75;;;;;;;12.36;77.76;101982.66;4994728;28;20379;-40
2022/10/30 08:08:11;;;;;;;10.10;5.45;;;;;;;12.37;77.86;101980.78;4994271;28;20088;-39
2022/10/30 08:10:37;;;;;;;9.77;5.55;;;;;;;12.34;78.07;101990.06;5007305;28;20026;-38
2022/10/30 08:13:04;;;;;;;11.70;5.40;;;;;;;12.31;78.25;101985.06;5014260;28;20026;-39
2022/10/30 08:15:31;;;;;;;8.00;5.20;;;;;;;12.32;78.43;101978.66;5004529;28;20030;-40
2022/10/30 08:17:58;;;;;;;12.23;5.95;;;;;;;12.43;78.22;101986.22;4994531;28;20062;-39
2022/10/30 08:20:25;;;;;;;15.40;6.18;;;;;;;12.67;77.68;101973.47;4991448;28;20027;-43
2022/10/30 08:22:56;;;;;;;7.82;5.25;;;;;;;12.38;78.46;101987.81;4991444;28;20048;-41
2022/10/30 08:25:28;;;;;;;8.90;5.50;;;;;;;12.31;78.51;101981.56;4994265;28;20120;-41
2022/10/30 08:28:03;;;;;;;9.35;5.00;;;;;;;12.30;78.67;101985.25;4994523;28;20037;-41
2022/10/30 08:30:33;;;;;;;13.88;6.35;;;;;;;12.31;80.47;101985.06;4994696;28;20483;-41
2022/10/30 08:33:01;;;;;;;10.88;6.15;;;;;;;12.53;80.37;101985.09;4994226;28;20427;-42
2022/10/30 08:35:28;;;;;;;16.02;6.30;;;;;;;12.43;81.55;101986.22;4994128;28;20104;-41
2022/10/30 08:37:58;;;;;;;12.68;6.80;;;;;;;12.61;81.90;101983.13;4994643;28;20032;-41
2022/10/30 08:40:26;;;;;;;15.75;7.28;;;;;;;12.63;82.66;101975.69;4994591;28;20081;-41
2022/10/30 08:42:57;;;;;;;13.95;7.15;;;;;;;12.81;82.87;101982.47;4994366;28;20046;-41
2022/10/30 08:45:24;;;;;;;15.95;7.28;;;;;;;12.67;83.00;101974.31;4993948;28;20061;-41
2022/10/30 08:47:58;;;;;;;15.63;7.15;;;;;;;12.57;83.47;101986.38;4993030;28;20080;-42
2022/10/30 08:50:25;;;;;;;10.05;6.35;;;;;;;12.47;83.58;101981.31;4993912;28;20043;-41
2022/10/30 08:52:51;;;;;;;15.07;7.25;;;;;;;12.53;83.21;101979.72;4992914;28;20026;-41
2022/10/30 08:55:17;;;;;;;15.55;7.18;;;;;;;12.57;83.48;101973.78;4993472;28;20110;-41
2022/10/30 08:57:44;;;;;;;11.90;7.32;;;;;;;12.62;84.57;101978.59;4976977;28;20041;-41
2022/10/30 09:00:11;;;;;;;18.55;8.02;;;;;;;12.57;85.46;101981.84;4974667;28;20531;-41
2022/10/30 09:02:40;;;;;;;15.95;8.00;;;;;;;12.50;87.25;101975.59;4985521;28;20100;-41
2022/10/30 09:05:08;;;;;;;14.40;8.18;;;;;;;12.78;86.07;101972.97;4992805;28;20125;-41
2022/10/30 09:07:34;;;;;;;15.30;7.63;;;;;;;12.86;85.89;101988.09;4993800;28;20485;-41
2022/10/30 09:10:01;;;;;;;16.50;7.88;;;;;;;12.71;86.97;101985.47;4992134;28;20042;-41
2022/10/30 09:12:27;;;;;;;15.90;7.68;;;;;;;12.84;86.10;101982.09;4994162;28;20505;-42
2022/10/30 09:14:53;;;;;;;17.23;7.80;;;;;;;12.80;86.03;101986.19;4991192;28;20034;-41
2022/10/30 09:17:20;;;;;;;14.25;6.93;;;;;;;12.81;86.45;101983.31;4993571;28;20031;-42
2022/10/30 09:19:46;;;;;;;12.57;7.03;;;;;;;12.82;86.38;101984.97;4991808;28;20026;-41
2022/10/30 09:22:12;;;;;;;17.10;8.23;;;;;;;12.94;85.89;101985.28;4974298;28;20444;-41
2022/10/30 09:24:39;;;;;;;20.40;8.05;;;;;;;12.93;85.95;101989.81;4973616;28;20077;-42
2022/10/30 09:27:05;;;;;;;14.88;7.88;;;;;;;12.94;86.40;101986.13;4984799;28;20034;-41
2022/10/30 09:29:32;;;;;;;15.45;7.93;;;;;;;13.05;86.37;101994.69;4992775;28;20034;-42
2022/10/30 09:31:59;;;;;;;19.80;8.43;;;;;;;12.77;88.88;101987.41;4991911;28;20030;-41
2022/10/30 09:34:26;;;;;;;19.77;10.18;;;;;;;12.84;89.07;101988.31;4993140;28;20030;-39
2022/10/30 09:36:52;;;;;;;18.30;9.85;;;;;;;13.11;88.89;101994.75;4991721;28;20051;-38
2022/10/30 09:39:18;;;;;;;19.25;9.50;;;;;;;13.04;88.33;101998.38;4993209;28;20030;-39
2022/10/30 09:41:53;;;;;;;22.50;10.25;;;;;;;13.09;88.44;101990.56;4991343;28;20026;-38
2022/10/30 09:44:19;;;;;;;20.27;10.32;;;;;;;13.17;89.10;101987.75;4992927;28;20038;-38
2022/10/30 09:47:14;;;;;;;16.17;9.63;;;;;;;13.23;88.90;101984.31;4991716;28;20025;-39
2022/10/30 09:49:44;;;;;;;17.15;9.77;;;;;;;13.16;89.47;101984.25;4989454;28;20042;-38
2022/10/30 09:52:25;;;;;;;24.92;9.65;;;;;;;13.15;89.71;101984.41;4991767;28;20383;-41
2022/10/30 09:55:03;;;;;;;17.13;8.45;;;;;;;13.22;89.62;101984.53;4990547;28;20026;-41
2022/10/30 09:57:57;;;;;;;19.95;9.63;;;;;;;13.22;89.60;101979.97;4993142;28;20394;-43
2022/10/30 10:00:36;;;;;;;18.13;8.50;;;;;;;13.34;88.71;101972.19;4992490;28;20109;-42
2022/10/30 10:03:20;;;;;;;18.02;8.70;;;;;;;13.41;88.23;101971.19;4991532;28;20046;-41
2022/10/30 10:05:52;;;;;;;20.63;8.98;;;;;;;13.36;88.57;101965.56;4973502;28;20034;-41
2022/10/30 10:08:40;;;;;;;16.73;8.85;;;;;;;13.52;88.13;101964.44;4975128;28;20117;-41
2022/10/30 10:11:23;;;;;;;17.67;9.02;;;;;;;13.52;88.27;101960.91;4992742;28;20030;-41
2022/10/30 10:14:07;;;;;;;17.98;9.77;;;;;;;13.40;88.98;101963.34;4990539;28;20475;-41
2022/10/30 10:16:37;;;;;;;16.45;9.00;;;;;;;13.51;88.78;101951.19;4992591;28;20053;-41
2022/10/30 10:19:20;;;;;;;18.05;9.98;;;;;;;13.40;89.23;101948.03;4991507;28;20088;-42
2022/10/30 10:21:56;;;;;;;18.08;9.65;;;;;;;13.40;89.98;101950.72;4991325;28;20045;-40
2022/10/30 10:24:25;;;;;;;20.15;9.60;;;;;;;13.59;89.49;101938.41;4990004;28;20077;-40
2022/10/30 10:27:13;;;;;;;21.05;9.32;;;;;;;13.51;89.60;101945.81;4990910;28;20030;-40
2022/10/30 10:29:44;;;;;;;15.63;9.07;;;;;;;13.50;89.66;101936.91;4992667;28;20022;-41
2022/10/30 10:32:28;;;;;;;18.35;8.98;;;;;;;13.76;88.93;101943.44;4991605;28;20034;-41
2022/10/30 10:35:06;;;;;;;20.05;10.40;;;;;;;13.67;89.24;101948.19;4990391;28;20065;-41
2022/10/30 10:38:10;;;;;;;20.60;9.50;;;;;;;13.65;89.08;101936.75;4990707;28;20045;-41
2022/10/30 10:40:57;;;;;;;18.70;9.40;;;;;;;13.77;89.18;101939.72;4975496;28;20044;-41
2022/10/30 10:44:10;;;;;;;16.50;9.43;;;;;;;13.77;89.05;101935.19;4973045;28;20038;-41
2022/10/30 10:47:06;;;;;;;16.92;8.43;;;;;;;13.60;89.79;101934.69;4972928;28;20043;-41
2022/10/30 10:50:16;;;;;;;15.43;9.52;;;;;;;13.62;89.47;101931.81;4974915;28;20035;-40
2022/10/30 10:52:54;;;;;;;19.92;9.10;;;;;;;13.70;88.96;101945.91;4992388;28;20042;-40
2022/10/30 10:55:30;;;;;;;16.65;9.18;;;;;;;13.82;88.35;101942.63;4990083;28;20494;-41
2022/10/30 10:58:05;;;;;;;13.45;9.40;;;;;;;14.00;87.68;101942.94;4992393;28;20034;-42
2022/10/30 11:00:31;;;;;;;14.80;8.77;;;;;;;13.99;87.31;101943.94;4990813;28;20486;-41
2022/10/30 11:03:10;;;;;;;14.27;8.75;;;;;;;14.08;86.93;101945.44;4992533;28;20030;-42
2022/10/30 11:06:01;;;;;;;10.77;7.80;;;;;;;14.07;87.11;101948.34;4990631;28;20096;-41
2022/10/30 11:08:33;;;;;;;12.80;8.30;;;;;;;14.06;87.00;101950.22;4992371;28;20034;-40
2022/10/30 11:11:05;;;;;;;14.77;8.30;;;;;;;14.20;86.30;101945.69;4990506;28;20124;-40
2022/10/30 11:13:40;;;;;;;11.80;7.93;;;;;;;14.14;86.53;101946.50;4991971;28;20061;-40
2022/10/30 11:16:14;;;;;;;;;;;;;;;14.17;86.38;101944.25;4990845;28;20076;-39
2022/10/30 11:18:43;;;;;;;13.73;8.15;;;;;;;14.18;86.35;101943.19;4992313;28;20366;-42
2022/10/30 11:21:15;;;;;;;14.10;8.10;;;;;;;14.28;86.07;101945.50;4990429;28;20031;-41
2022/10/30 11:23:44;;;;;;;15.80;8.02;;;;;;;14.25;85.80;101944.03;4991996;28;20066;-42
2022/10/30 11:26:25;;;;;;;11.80;7.22;;;;;;;14.32;85.70;101935.13;4989990;28;20065;-41
2022/10/30 11:29:14;;;;;;;13.73;8.63;;;;;;;14.28;85.46;101940.13;4981667;28;20027;-40
2022/10/30 11:31:42;;;;;;;16.25;9.30;;;;;;;14.26;85.82;101934.91;4986658;28;20070;-40